Time;durP1;ratioP1;P1;durP2;ratioP2;P2;SDS_P1;SDS_P2;PMS_P1;PMS_P2;Temp;Humidity;BMP_temperature;BMP_pressure;BME280_temperature;BME280_humidity;BME280_pressure;Samples;Min_cycle;Max_cycle;Signal;HPM_P1;HPM_P2
2022/08/18 00:01:34;;;;;;;0.00;0.00;;;25.30;74.70;;;;;;3912210;30;20110;-66
2022/08/18 00:03:56;;;;;;;0.40;0.40;;;25.30;74.70;;;;;;3915050;30;20062;-66
2022/08/18 00:06:20;;;;;;;0.00;0.00;;;25.30;74.70;;;;;;3901029;30;20261;-66
2022/08/18 00:08:42;;;;;;;0.00;0.00;;;25.30;74.70;;;;;;3915337;30;20413;-67
2022/08/18 00:11:06;;;;;;;0.00;0.00;;;25.30;74.70;;;;;;3914677;30;20049;-67
2022/08/18 00:13:28;;;;;;;0.00;0.00;;;25.30;74.60;;;;;;3915485;30;20064;-66
2022/08/18 00:15:51;;;;;;;0.63;0.63;;;25.30;74.70;;;;;;3914233;30;20052;-67
2022/08/18 00:18:13;;;;;;;0.00;0.00;;;25.30;74.60;;;;;;3915103;30;20118;-66
2022/08/18 00:20:35;;;;;;;0.00;0.00;;;25.40;74.80;;;;;;3914696;30;20061;-67
2022/08/18 00:22:57;;;;;;;1.15;1.10;;;25.30;74.60;;;;;;3914937;30;20456;-66
2022/08/18 00:25:21;;;;;;;0.00;0.00;;;25.40;74.60;;;;;;3914385;30;20603;-66
2022/08/18 00:27:43;;;;;;;0.00;0.00;;;25.30;74.60;;;;;;3914930;30;20424;-66
2022/08/18 00:30:09;;;;;;;0.30;0.30;;;25.30;74.60;;;;;;3901432;30;20583;-66
2022/08/18 00:32:34;;;;;;;0.00;0.00;;;25.30;74.60;;;;;;3915218;30;20574;-66
2022/08/18 00:34:57;;;;;;;0.90;0.75;;;25.30;74.70;;;;;;3914205;30;20061;-66
2022/08/18 00:37:19;;;;;;;0.00;0.00;;;25.30;74.80;;;;;;3914483;30;20725;-65
2022/08/18 00:39:41;;;;;;;0.00;0.00;;;25.30;74.80;;;;;;3914683;30;20070;-67
2022/08/18 00:42:15;;;;;;;0.00;0.00;;;25.30;74.80;;;;;;3914246;30;20111;-66
2022/08/18 00:44:48;;;;;;;0.00;0.00;;;25.30;74.80;;;;;;3914880;30;20183;-66
2022/08/18 00:47:10;;;;;;;0.80;0.73;;;25.30;74.80;;;;;;3913976;30;20079;-66
2022/08/18 00:49:34;;;;;;;0.30;0.30;;;25.30;74.80;;;;;;3914230;30;20139;-66
2022/08/18 00:51:58;;;;;;;0.00;0.00;;;25.30;74.80;;;;;;3914221;30;20139;-67
2022/08/18 00:54:24;;;;;;;0.20;0.20;;;25.30;74.80;;;;;;3900035;30;20057;-66
2022/08/18 00:56:49;;;;;;;0.25;0.25;;;25.40;74.80;;;;;;3899384;30;20060;-66
2022/08/18 00:59:19;;;;;;;0.00;0.00;;;25.30;74.60;;;;;;3899498;30;20084;-66
2022/08/18 01:01:43;;;;;;;0.00;0.00;;;25.30;74.70;;;;;;3899514;30;20056;-66
2022/08/18 01:04:09;;;;;;;0.00;0.00;;;25.30;74.80;;;;;;3911062;30;20051;-66
2022/08/18 01:06:39;;;;;;;0.20;0.20;;;25.30;74.70;;;;;;3913500;30;20164;-66
2022/08/18 01:09:02;;;;;;;0.00;0.00;;;25.30;74.70;;;;;;3913245;30;20083;-66
2022/08/18 01:11:24;;;;;;;0.00;0.00;;;25.40;74.80;;;;;;3913855;30;20088;-67
2022/08/18 01:13:47;;;;;;;0.00;0.00;;;25.30;74.70;;;;;;3913806;30;20076;-65
2022/08/18 01:21:52;;;;;;;0.00;0.00;;;25.30;74.60;;;;;;3914318;30;20054;-65
2022/08/18 01:24:16;;;;;;;0.00;0.00;;;25.30;74.70;;;;;;3912904;30;20041;-65
2022/08/18 01:26:48;;;;;;;0.00;0.00;;;25.30;74.70;;;;;;3913772;30;20139;-65
2022/08/18 01:29:10;;;;;;;0.00;0.00;;;25.30;74.80;;;;;;3899158;30;20064;-65
2022/08/18 01:31:36;;;;;;;0.00;0.00;;;25.30;74.80;;;;;;3900010;30;20061;-65
2022/08/18 01:33:59;;;;;;;0.00;0.00;;;25.30;74.60;;;;;;3899384;30;20057;-65
2022/08/18 01:36:22;;;;;;;0.10;0.10;;;25.30;74.60;;;;;;3905001;30;20410;-65
2022/08/18 01:38:46;;;;;;;0.65;0.65;;;25.40;74.60;;;;;;3912806;30;20060;-66
2022/08/18 01:41:10;;;;;;;0.00;0.00;;;25.40;74.70;;;;;;3913943;30;20077;-65
2022/08/18 01:43:49;;;;;;;0.00;0.00;;;25.40;74.60;;;;;;3912863;30;20126;-65
2022/08/18 01:46:11;;;;;;;0.00;0.00;;;25.40;74.50;;;;;;3913630;30;20388;-66
2022/08/18 01:48:35;;;;;;;0.00;0.00;;;25.40;74.50;;;;;;3913491;30;20052;-65
2022/08/18 01:50:56;;;;;;;1.05;0.50;;;25.40;74.40;;;;;;3913740;30;20064;-66
2022/08/18 01:53:18;;;;;;;0.00;0.00;;;25.40;74.30;;;;;;3913761;30;20057;-66
2022/08/18 01:55:44;;;;;;;0.10;0.10;;;25.40;74.30;;;;;;3899733;30;20061;-66
2022/08/18 01:58:07;;;;;;;0.00;0.00;;;25.40;74.30;;;;;;3899799;30;20053;-66
2022/08/18 02:00:31;;;;;;;0.00;0.00;;;25.40;74.60;;;;;;3913081;30;20138;-66
2022/08/18 02:02:53;;;;;;;0.00;0.00;;;25.40;74.20;;;;;;3913396;30;20064;-65
2022/08/18 02:05:24;;;;;;;0.00;0.00;;;25.40;74.20;;;;;;3912906;30;20041;-66
2022/08/18 02:07:46;;;;;;;0.00;0.00;;;25.40;74.20;;;;;;3912127;30;20045;-66
2022/08/18 02:10:10;;;;;;;0.00;0.00;;;25.40;74.20;;;;;;3912669;30;20115;-66
2022/08/18 02:12:33;;;;;;;0.00;0.00;;;25.40;74.10;;;;;;3912934;30;20512;-66
2022/08/18 02:14:56;;;;;;;0.00;0.00;;;25.40;74.10;;;;;;3900136;30;20055;-66
2022/08/18 02:17:19;;;;;;;0.10;0.10;;;25.40;74.20;;;;;;3912419;30;20159;-66
2022/08/18 02:19:44;;;;;;;0.30;0.30;;;25.40;74.00;;;;;;3913383;30;20052;-65
2022/08/18 02:22:08;;;;;;;0.10;0.10;;;25.50;74.10;;;;;;3913181;30;20409;-65
2022/08/18 02:24:30;;;;;;;0.00;0.00;;;25.40;74.00;;;;;;3912094;30;20445;-65
2022/08/18 02:26:52;;;;;;;0.00;0.00;;;25.40;74.00;;;;;;3911895;30;20056;-66
2022/08/18 02:29:14;;;;;;;0.00;0.00;;;25.40;74.00;;;;;;3913291;30;20076;-65
2022/08/18 02:31:39;;;;;;;0.00;0.00;;;25.40;73.90;;;;;;3912577;30;20802;-65
2022/08/18 02:34:01;;;;;;;0.00;0.00;;;25.40;73.90;;;;;;3913251;30;20049;-65
2022/08/18 02:36:23;;;;;;;0.00;0.00;;;25.40;73.90;;;;;;3911269;30;20524;-65
2022/08/18 02:38:45;;;;;;;0.00;0.00;;;25.40;74.00;;;;;;3887831;30;20050;-65
2022/08/18 02:41:15;;;;;;;0.00;0.00;;;25.40;74.10;;;;;;3912446;30;20444;-65
2022/08/18 02:43:38;;;;;;;1.33;1.23;;;25.40;74.00;;;;;;3912868;30;20520;-65
2022/08/18 02:46:00;;;;;;;0.30;0.30;;;25.40;74.00;;;;;;3912681;30;20053;-65
2022/08/18 02:48:25;;;;;;;0.00;0.00;;;25.40;74.00;;;;;;3913048;30;20390;-65
2022/08/18 02:50:47;;;;;;;0.00;0.00;;;25.40;74.00;;;;;;3912895;30;20440;-66
2022/08/18 02:53:09;;;;;;;0.00;0.00;;;25.40;74.00;;;;;;3913165;30;20052;-65
2022/08/18 02:55:33;;;;;;;0.00;0.00;;;25.40;73.90;;;;;;3912334;30;20135;-66
2022/08/18 02:57:55;;;;;;;0.00;0.00;;;25.40;74.00;;;;;;3899798;30;20121;-65
2022/08/18 03:00:18;;;;;;;0.65;0.65;;;25.40;74.00;;;;;;3913109;30;20057;-65
2022/08/18 03:02:40;;;;;;;2.90;0.85;;;25.40;74.00;;;;;;3912453;30;20048;-66
2022/08/18 03:05:05;;;;;;;0.00;0.00;;;25.40;74.90;;;;;;3912346;30;20068;-66
2022/08/18 03:07:27;;;;;;;0.00;0.00;;;25.40;74.00;;;;;;3912376;30;20490;-67
2022/08/18 03:09:49;;;;;;;0.00;0.00;;;25.40;74.10;;;;;;3912647;30;20051;-67
2022/08/18 03:12:10;;;;;;;0.20;0.20;;;25.40;74.10;;;;;;3912432;30;20064;-67
2022/08/18 03:14:32;;;;;;;0.00;0.00;;;25.40;74.10;;;;;;3912637;30;20055;-67
2022/08/18 03:16:55;;;;;;;0.10;0.10;;;25.30;74.10;;;;;;3897311;30;20078;-67
2022/08/18 03:19:16;;;;;;;0.13;0.13;;;25.30;75.00;;;;;;3897133;30;20144;-66
2022/08/18 03:21:40;;;;;;;2.65;1.65;;;25.30;74.20;;;;;;3897656;30;20147;-67
2022/08/18 03:24:03;;;;;;;5.88;0.77;;;25.30;75.20;;;;;;3884582;30;20119;-67
2022/08/18 03:26:31;;;;;;;0.38;0.38;;;25.30;74.30;;;;;;3910010;30;20064;-67
2022/08/18 03:28:54;;;;;;;0.00;0.00;;;25.30;74.30;;;;;;3912822;30;20066;-66
2022/08/18 03:31:18;;;;;;;0.00;0.00;;;25.30;74.30;;;;;;3912191;30;20059;-66
2022/08/18 03:33:41;;;;;;;0.00;0.00;;;25.30;74.50;;;;;;3912558;30;20060;-66
2022/08/18 03:36:05;;;;;;;0.00;0.00;;;25.30;74.40;;;;;;3911958;30;20063;-66
2022/08/18 03:38:29;;;;;;;0.10;0.10;;;25.30;74.50;;;;;;3911812;30;20068;-66
2022/08/18 03:40:51;;;;;;;0.03;0.03;;;25.30;75.00;;;;;;3912331;30;20061;-67
2022/08/18 03:43:13;;;;;;;0.10;0.10;;;25.30;74.50;;;;;;3912452;30;20285;-66
2022/08/18 03:45:45;;;;;;;2.20;2.08;;;25.30;74.60;;;;;;3912232;30;20055;-67
2022/08/18 03:48:07;;;;;;;0.08;0.08;;;25.30;74.60;;;;;;3912039;30;20381;-67
2022/08/18 03:50:31;;;;;;;0.10;0.10;;;25.30;74.70;;;;;;3899109;30;20103;-67
2022/08/18 03:52:54;;;;;;;0.00;0.00;;;25.30;74.60;;;;;;3910865;30;20057;-67
2022/08/18 03:55:17;;;;;;;0.00;0.00;;;25.30;74.70;;;;;;3898945;30;20053;-66
2022/08/18 03:57:39;;;;;;;0.05;0.05;;;25.30;74.60;;;;;;3912272;30;20148;-66
2022/08/18 04:00:02;;;;;;;0.30;0.30;;;25.30;75.60;;;;;;3912482;30;20080;-66
2022/08/18 04:02:27;;;;;;;0.20;0.20;;;25.30;75.70;;;;;;3911900;30;20080;-67
2022/08/18 04:04:50;;;;;;;0.10;0.10;;;25.30;74.80;;;;;;3911799;30;20531;-66
2022/08/18 04:07:15;;;;;;;0.03;0.03;;;25.30;74.80;;;;;;3908535;30;20056;-67
2022/08/18 04:09:38;;;;;;;0.05;0.05;;;25.30;74.80;;;;;;3912098;30;20405;-66
2022/08/18 04:12:10;;;;;;;0.10;0.10;;;25.30;74.80;;;;;;3912071;30;20079;-66
2022/08/18 04:14:34;;;;;;;0.00;0.00;;;25.30;74.70;;;;;;3912078;30;20560;-66
2022/08/18 04:16:58;;;;;;;0.20;0.20;;;25.30;74.70;;;;;;3911691;30;20184;-66
2022/08/18 04:19:20;;;;;;;0.00;0.00;;;25.30;74.80;;;;;;3897337;30;20114;-67
2022/08/18 04:21:44;;;;;;;0.28;0.28;;;25.30;74.70;;;;;;3897537;30;20790;-66
2022/08/18 04:24:07;;;;;;;0.00;0.00;;;25.30;74.70;;;;;;3897095;30;20056;-66
2022/08/18 04:26:30;;;;;;;1.77;0.70;;;25.30;74.70;;;;;;3907154;30;20088;-66
2022/08/18 04:28:54;;;;;;;0.00;0.00;;;25.30;74.60;;;;;;3898340;30;20053;-67
2022/08/18 04:31:17;;;;;;;0.00;0.00;;;25.30;74.70;;;;;;3912077;30;20413;-66
2022/08/18 04:33:39;;;;;;;0.10;0.10;;;25.30;74.60;;;;;;3912018;30;20060;-66
2022/08/18 04:36:08;;;;;;;0.00;0.00;;;25.30;74.60;;;;;;3911781;30;20155;-66
2022/08/18 04:38:30;;;;;;;0.08;0.08;;;25.30;74.70;;;;;;3911446;30;20053;-66
2022/08/18 04:40:52;;;;;;;0.00;0.00;;;25.30;74.60;;;;;;3912151;30;20063;-66
2022/08/18 04:43:15;;;;;;;0.10;0.10;;;25.30;74.60;;;;;;3897438;30;20486;-66
2022/08/18 04:45:39;;;;;;;0.00;0.00;;;25.30;74.60;;;;;;3900469;30;20052;-66
2022/08/18 04:48:01;;;;;;;0.57;0.57;;;25.30;74.60;;;;;;3911747;30;20141;-66
2022/08/18 04:50:24;;;;;;;0.00;0.00;;;25.30;74.60;;;;;;3914086;30;20071;-66
2022/08/18 04:55:30;;;;;;;0.00;0.00;;;25.20;74.60;;;;;;3913271;30;20060;-66
2022/08/18 04:57:52;;;;;;;0.03;0.03;;;25.30;74.60;;;;;;3914036;30;20067;-66
2022/08/18 05:00:16;;;;;;;0.00;0.00;;;25.20;74.60;;;;;;3900587;30;20139;-65
2022/08/18 05:02:39;;;;;;;0.00;0.00;;;25.20;74.60;;;;;;3900120;30;20068;-64
2022/08/18 05:05:02;;;;;;;0.20;0.20;;;25.30;75.10;;;;;;3899816;30;20398;-64
2022/08/18 05:07:25;;;;;;;0.00;0.00;;;25.30;75.00;;;;;;3912633;30;20056;-64
2022/08/18 05:09:47;;;;;;;0.55;0.55;;;25.30;75.00;;;;;;3913085;30;20079;-64
2022/08/18 05:12:13;;;;;;;0.00;0.00;;;25.20;74.90;;;;;;3916068;30;20060;-64
2022/08/18 05:14:35;;;;;;;0.00;0.00;;;25.20;74.80;;;;;;3907522;30;20053;-65
2022/08/18 05:16:59;;;;;;;0.20;0.20;;;25.30;74.90;;;;;;3912951;30;20512;-65
2022/08/18 05:19:24;;;;;;;0.90;0.90;;;25.30;74.80;;;;;;3913905;30;20528;-65
2022/08/18 05:21:47;;;;;;;0.00;0.00;;;25.30;74.80;;;;;;3899498;30;20059;-64
2022/08/18 05:24:11;;;;;;;0.00;0.00;;;25.30;74.80;;;;;;3899004;30;20064;-64
2022/08/18 05:26:33;;;;;;;0.00;0.00;;;25.30;74.70;;;;;;3912316;30;20145;-64
2022/08/18 05:28:55;;;;;;;1.00;0.25;;;25.30;74.80;;;;;;3915692;30;20583;-64
2022/08/18 05:31:21;;;;;;;0.40;0.40;;;25.30;74.70;;;;;;3928492;30;20052;-64
2022/08/18 05:33:44;;;;;;;0.20;0.20;;;25.30;74.60;;;;;;3928091;30;20083;-64
2022/08/18 05:36:22;;;;;;;0.10;0.10;;;25.30;74.70;;;;;;3917777;30;20143;-63
2022/08/18 05:38:54;;;;;;;0.73;0.73;;;25.30;74.70;;;;;;3912329;30;20134;-64
2022/08/18 05:41:27;;;;;;;0.00;0.00;;;25.30;74.80;;;;;;3913789;30;20188;-64
2022/08/18 05:43:51;;;;;;;0.52;0.52;;;25.30;74.90;;;;;;3913250;30;20123;-63
2022/08/18 05:46:13;;;;;;;0.00;0.00;;;25.20;74.80;;;;;;3915937;30;20114;-64
2022/08/18 05:48:35;;;;;;;0.00;0.00;;;25.30;75.00;;;;;;3913871;30;20057;-63
2022/08/18 05:51:14;;;;;;;0.03;0.03;;;25.30;75.20;;;;;;3913881;30;20485;-63
2022/08/18 05:59:03;;;;;;;0.00;0.00;;;25.20;75.30;;;;;;3913270;30;20091;-68
2022/08/18 06:01:36;;;;;;;1.08;1.02;;;25.20;75.50;;;;;;3913793;30;20219;-68
2022/08/18 06:04:06;;;;;;;0.00;0.00;;;25.20;75.60;;;;;;3913566;30;20110;-68
2022/08/18 06:06:32;;;;;;;1.48;1.38;;;25.20;75.70;;;;;;3912696;30;20071;-67
2022/08/18 06:09:03;;;;;;;0.10;0.10;;;25.20;75.70;;;;;;3913147;30;20069;-68
2022/08/18 06:11:25;;;;;;;0.28;0.28;;;25.20;75.70;;;;;;3913526;30;20064;-69
2022/08/18 06:13:47;;;;;;;0.00;0.00;;;25.20;75.70;;;;;;3913153;30;20140;-68
2022/08/18 06:16:17;;;;;;;0.00;0.00;;;25.10;76.60;;;;;;3912925;30;20053;-68
2022/08/18 06:18:47;;;;;;;0.00;0.00;;;25.10;75.70;;;;;;3909270;30;20107;-68
2022/08/18 06:21:22;;;;;;;0.00;0.00;;;25.20;75.80;;;;;;3885333;30;20054;-68
2022/08/18 06:23:55;;;;;;;0.43;0.43;;;25.20;75.70;;;;;;3897947;30;20065;-68
2022/08/18 06:26:21;;;;;;;0.10;0.10;;;25.20;75.70;;;;;;3898720;30;20057;-68
2022/08/18 06:28:53;;;;;;;0.00;0.00;;;25.20;75.80;;;;;;3897717;30;20064;-68
2022/08/18 06:31:21;;;;;;;0.00;0.00;;;25.10;75.70;;;;;;3898628;30;20053;-68
2022/08/18 06:33:57;;;;;;;0.10;0.10;;;25.20;75.80;;;;;;3898311;30;20386;-68
2022/08/18 06:36:25;;;;;;;;;;;25.20;75.80;;;;;;3898836;30;20483;-68
2022/08/18 06:39:00;;;;;;;0.00;0.00;;;25.20;75.70;;;;;;3898132;30;19927;-68
2022/08/18 06:41:33;;;;;;;0.00;0.00;;;25.20;75.90;;;;;;3897962;30;20138;-68
2022/08/18 06:44:02;;;;;;;0.10;0.10;;;25.20;75.80;;;;;;3897972;30;20118;-68
2022/08/18 06:46:33;;;;;;;0.00;0.00;;;25.20;75.90;;;;;;3898041;30;20421;-68
2022/08/18 06:48:59;;;;;;;0.30;0.25;;;25.20;76.00;;;;;;3897679;30;20167;-68
2022/08/18 06:51:23;;;;;;;0.00;0.00;;;25.20;76.00;;;;;;3898220;30;20071;-68
2022/08/18 06:53:59;;;;;;;0.00;0.00;;;25.20;76.10;;;;;;3902111;30;20151;-67
2022/08/18 06:56:25;;;;;;;0.00;0.00;;;25.10;76.20;;;;;;3912148;30;20563;-68
2022/08/18 06:58:49;;;;;;;0.68;0.68;;;25.10;76.20;;;;;;3897208;30;20080;-68
2022/08/18 07:01:13;;;;;;;0.00;0.00;;;25.10;76.30;;;;;;3897250;30;20599;-68
2022/08/18 07:03:48;;;;;;;0.25;0.25;;;25.10;76.50;;;;;;3889862;30;20049;-67
2022/08/18 07:06:29;;;;;;;0.00;0.00;;;25.10;76.50;;;;;;3911834;30;20078;-67
2022/08/18 07:08:54;;;;;;;0.00;0.00;;;25.10;76.70;;;;;;3912436;30;20053;-68
2022/08/18 07:11:22;;;;;;;0.17;0.17;;;25.10;76.70;;;;;;3912100;30;20516;-64
2022/08/18 07:13:46;;;;;;;0.00;0.00;;;25.10;76.90;;;;;;3910889;30;20060;-68
2022/08/18 07:16:31;;;;;;;0.00;0.00;;;25.10;77.20;;;;;;3907752;30;20500;-68
2022/08/18 07:19:15;;;;;;;0.00;0.00;;;25.10;77.30;;;;;;3904405;30;20055;-68
2022/08/18 07:21:39;;;;;;;0.00;0.00;;;25.10;77.20;;;;;;3924928;30;20208;-68
2022/08/18 07:24:07;;;;;;;0.00;0.00;;;25.00;77.30;;;;;;3897719;30;20398;-65
2022/08/18 07:27:02;;;;;;;0.10;0.10;;;25.00;77.40;;;;;;3898039;30;20084;-64
2022/08/18 07:29:24;;;;;;;0.47;0.47;;;25.00;77.40;;;;;;3904816;30;20131;-68
2022/08/18 07:31:51;;;;;;;0.00;0.00;;;25.00;77.70;;;;;;3911889;30;20457;-67
2022/08/18 07:34:19;;;;;;;0.10;0.10;;;25.00;77.50;;;;;;3912303;30;20072;-69
2022/08/18 07:36:47;;;;;;;0.00;0.00;;;25.00;77.40;;;;;;3915130;30;20048;-63
2022/08/18 07:39:15;;;;;;;0.35;0.22;;;25.00;77.50;;;;;;3911994;30;20480;-64
2022/08/18 07:41:42;;;;;;;0.00;0.00;;;24.90;77.60;;;;;;3911837;30;20139;-64
2022/08/18 07:44:18;;;;;;;0.00;0.00;;;24.90;77.60;;;;;;3912261;30;20409;-64
2022/08/18 07:46:46;;;;;;;0.00;0.00;;;24.90;77.80;;;;;;3912223;30;20417;-64
2022/08/18 07:49:11;;;;;;;0.47;0.47;;;24.90;77.90;;;;;;3897799;30;20061;-64
2022/08/18 07:51:45;;;;;;;0.13;0.13;;;24.90;78.00;;;;;;3883839;30;20092;-65
2022/08/18 07:54:13;;;;;;;1.35;0.65;;;24.90;77.80;;;;;;3884269;30;20556;-65
2022/08/18 07:57:02;;;;;;;0.25;0.25;;;24.90;77.80;;;;;;3884103;30;20053;-65
2022/08/18 07:59:32;;;;;;;0.80;0.52;;;24.90;77.80;;;;;;3897438;30;20107;-64
2022/08/18 08:02:01;;;;;;;0.00;0.00;;;24.90;78.60;;;;;;3911442;30;20493;-64
2022/08/18 08:04:29;;;;;;;0.00;0.00;;;24.90;77.50;;;;;;3911884;30;20071;-64
2022/08/18 08:06:57;;;;;;;0.00;0.00;;;24.90;77.50;;;;;;3911754;30;20428;-64
2022/08/18 08:09:52;;;;;;;0.00;0.00;;;24.90;77.50;;;;;;3911677;30;20061;-64
2022/08/18 08:12:24;;;;;;;0.00;0.00;;;24.80;77.50;;;;;;3898429;30;20451;-68
2022/08/18 08:14:50;;;;;;;0.00;0.00;;;24.80;77.50;;;;;;3912134;30;20052;-68
2022/08/18 08:17:24;;;;;;;0.00;0.00;;;24.90;77.30;;;;;;3911566;30;20075;-68
2022/08/18 08:20:12;;;;;;;0.00;0.00;;;24.80;78.00;;;;;;3911309;30;20172;-68
2022/08/18 08:22:42;;;;;;;0.00;0.00;;;24.80;77.10;;;;;;3911898;30;20055;-68
2022/08/18 08:25:12;;;;;;;0.45;0.45;;;24.90;77.40;;;;;;3914483;30;20055;-66
2022/08/18 08:28:06;;;;;;;0.40;0.40;;;24.90;77.70;;;;;;3914342;30;20056;-66
2022/08/18 08:30:33;;;;;;;0.00;0.00;;;24.90;77.50;;;;;;3914549;30;20060;-66
2022/08/18 08:33:07;;;;;;;0.10;0.10;;;24.90;77.30;;;;;;3914505;30;20060;-66
2022/08/18 08:35:37;;;;;;;0.00;0.00;;;24.90;77.30;;;;;;3914393;30;20143;-66
2022/08/18 08:38:12;;;;;;;0.10;0.10;;;24.90;77.20;;;;;;3900330;30;20118;-69
2022/08/18 08:41:03;;;;;;;0.00;0.00;;;24.90;77.10;;;;;;3905535;30;20066;-69
2022/08/18 08:43:31;;;;;;;0.20;0.20;;;24.90;76.90;;;;;;3914017;30;20478;-69
2022/08/18 08:46:07;;;;;;;0.00;0.00;;;25.00;76.80;;;;;;3914063;30;20484;-70
2022/08/18 08:48:33;;;;;;;0.40;0.40;;;25.00;76.80;;;;;;3914819;30;20060;-69
2022/08/18 08:50:59;;;;;;;0.00;0.00;;;25.00;76.70;;;;;;3914167;30;20056;-69
2022/08/18 08:53:25;;;;;;;0.00;0.00;;;25.00;76.60;;;;;;3914363;30;20418;-69
2022/08/18 08:55:53;;;;;;;0.00;0.00;;;25.00;76.60;;;;;;3914878;30;20118;-69
2022/08/18 08:58:25;;;;;;;0.00;0.00;;;25.00;76.50;;;;;;3900935;30;20081;-69
2022/08/18 09:00:48;;;;;;;0.00;0.00;;;25.10;76.50;;;;;;3913767;30;20502;-69
2022/08/18 09:03:25;;;;;;;0.00;0.00;;;25.10;76.30;;;;;;3914048;30;20512;-69
2022/08/18 09:06:00;;;;;;;0.00;0.00;;;25.10;76.00;;;;;;3914023;30;20065;-69
2022/08/18 09:08:45;;;;;;;0.20;0.20;;;25.10;75.70;;;;;;3914352;30;20135;-69
2022/08/18 09:11:20;;;;;;;2.22;1.98;;;25.20;75.70;;;;;;3914331;30;20049;-69
2022/08/18 09:14:19;;;;;;;0.00;0.00;;;25.20;75.80;;;;;;3914105;30;20408;-69
2022/08/18 09:16:54;;;;;;;0.00;0.00;;;25.20;75.60;;;;;;3886086;30;20524;-69
2022/08/18 09:19:39;;;;;;;0.00;0.00;;;25.20;75.40;;;;;;3914005;30;20053;-69
2022/08/18 09:22:10;;;;;;;0.00;0.00;;;25.20;75.30;;;;;;3914251;30;20073;-70
2022/08/18 09:24:39;;;;;;;;;;;25.20;75.20;;;;;;3914294;30;20045;-69
2022/08/18 09:27:26;;;;;;;0.00;0.00;;;25.20;75.10;;;;;;3912755;30;19927;-69
2022/08/18 09:29:52;;;;;;;0.17;0.15;;;25.20;75.10;;;;;;3913967;30;20084;-69
2022/08/18 09:32:42;;;;;;;0.00;0.00;;;25.20;75.20;;;;;;3913556;30;20744;-69
2022/08/18 09:35:22;;;;;;;0.00;0.00;;;25.20;75.20;;;;;;3912994;30;20402;-69
2022/08/18 09:41:30;;;;;;;0.00;0.00;;;25.20;75.20;;;;;;3914006;30;20095;-69
2022/08/18 09:43:30;;;;;;;;;;;25.20;74.90;;;;;;3914144;30;20068;-69
2022/08/18 09:45:56;;;;;;;0.38;0.38;;;25.20;74.90;;;;;;3913857;30;20054;-69
2022/08/18 09:48:28;;;;;;;0.00;0.00;;;25.20;74.80;;;;;;3913456;30;20052;-69
2022/08/18 09:51:14;;;;;;;0.00;0.00;;;25.20;75.00;;;;;;3913731;30;20055;-69
2022/08/18 09:53:54;;;;;;;0.00;0.00;;;25.20;75.00;;;;;;3913473;30;20458;-69
2022/08/18 09:56:40;;;;;;;0.00;0.00;;;25.20;75.00;;;;;;3913311;30;20064;-69
2022/08/18 09:59:53;;;;;;;0.00;0.00;;;25.20;75.70;;;;;;3913503;30;20060;-69
2022/08/18 10:03:10;;;;;;;0.00;0.00;;;25.20;74.80;;;;;;3913244;30;20063;-68
2022/08/18 10:05:34;;;;;;;0.00;0.00;;;25.20;74.70;;;;;;3913213;30;20245;-71
2022/08/18 10:08:32;;;;;;;0.00;0.00;;;25.20;74.70;;;;;;3912940;30;20122;-69
2022/08/18 10:11:01;;;;;;;0.00;0.00;;;25.20;74.70;;;;;;3912809;30;20126;-70
2022/08/18 10:13:35;;;;;;;0.00;0.00;;;25.20;74.60;;;;;;3899579;30;20081;-69
2022/08/18 10:16:09;;;;;;;0.00;0.00;;;25.20;74.60;;;;;;3905166;30;20151;-68
2022/08/18 10:19:05;;;;;;;0.00;0.00;;;25.30;74.70;;;;;;3912745;30;20056;-69
2022/08/18 10:21:29;;;;;;;0.10;0.10;;;25.30;74.60;;;;;;3913407;30;20072;-69
2022/08/18 10:23:56;;;;;;;0.00;0.00;;;25.30;74.00;;;;;;3913174;30;20056;-67
2022/08/18 10:27:04;;;;;;;0.00;0.00;;;25.30;74.00;;;;;;3913151;30;20048;-69
2022/08/18 10:29:49;;;;;;;0.00;0.00;;;25.30;74.10;;;;;;3906282;30;20060;-69
2022/08/18 10:32:36;;;;;;;0.00;0.00;;;25.30;74.00;;;;;;3913203;30;20545;-69
2022/08/18 10:35:00;;;;;;;0.00;0.00;;;25.30;74.00;;;;;;3912772;30;20056;-69
2022/08/18 10:37:27;;;;;;;0.00;0.00;;;25.30;73.80;;;;;;3912257;30;20060;-69
2022/08/18 10:39:52;;;;;;;0.60;0.60;;;25.30;73.70;;;;;;3912862;30;20083;-69
2022/08/18 10:42:22;;;;;;;0.20;0.20;;;25.40;73.80;;;;;;3912471;30;20083;-69
2022/08/18 10:44:46;;;;;;;0.00;0.00;;;25.40;73.70;;;;;;3912692;30;20104;-68
2022/08/18 10:47:19;;;;;;;0.00;0.00;;;25.40;73.70;;;;;;3912240;30;20051;-69
2022/08/18 10:49:41;;;;;;;0.00;0.00;;;25.40;73.60;;;;;;3912740;30;20056;-69
2022/08/18 10:52:44;;;;;;;0.00;0.00;;;25.40;73.60;;;;;;3912906;30;20063;-68
2022/08/18 10:55:38;;;;;;;0.00;0.00;;;25.40;73.60;;;;;;3899115;30;20076;-66
2022/08/18 10:58:21;;;;;;;4.70;1.77;;;25.40;73.50;;;;;;3912878;30;20467;-66
2022/08/18 11:01:00;;;;;;;0.00;0.00;;;25.40;73.50;;;;;;3912731;30;20079;-66
2022/08/18 11:03:39;;;;;;;0.00;0.00;;;25.40;73.40;;;;;;3902964;30;20420;-66
2022/08/18 11:06:22;;;;;;;0.00;0.00;;;25.40;73.40;;;;;;3911606;30;20103;-66
2022/08/18 11:08:50;;;;;;;2.20;0.70;;;25.40;73.30;;;;;;3912652;30;20575;-66
2022/08/18 11:11:22;;;;;;;3.33;2.07;;;25.40;73.10;;;;;;3911188;30;20048;-66
2022/08/18 11:14:04;;;;;;;0.00;0.00;;;25.40;73.10;;;;;;3912250;30;20306;-66
2022/08/18 11:16:36;;;;;;;1.80;0.55;;;25.30;73.00;;;;;;3912785;30;20139;-66
2022/08/18 11:19:07;;;;;;;0.00;0.00;;;25.30;72.80;;;;;;3911589;30;20049;-67
2022/08/18 11:21:38;;;;;;;0.00;0.00;;;25.30;72.80;;;;;;3912187;30;20072;-67
2022/08/18 11:24:15;;;;;;;0.00;0.00;;;25.30;73.00;;;;;;3912553;30;20134;-66
2022/08/18 11:26:40;;;;;;;0.00;0.00;;;25.30;73.60;;;;;;3912554;30;20075;-66
2022/08/18 11:29:23;;;;;;;0.10;0.10;;;25.30;73.00;;;;;;3912297;30;20481;-65
2022/08/18 11:31:46;;;;;;;0.00;0.00;;;25.30;73.10;;;;;;3912349;30;20056;-65
2022/08/18 11:34:17;;;;;;;0.00;0.00;;;25.30;73.10;;;;;;3912264;30;20519;-63
2022/08/18 11:36:39;;;;;;;0.00;0.00;;;25.30;73.10;;;;;;3912019;30;20053;-66
2022/08/18 11:39:01;;;;;;;0.00;0.00;;;25.40;73.10;;;;;;3912570;30;20124;-69
2022/08/18 11:41:28;;;;;;;0.00;0.00;;;25.30;73.00;;;;;;3911987;30;20501;-69
2022/08/18 11:43:58;;;;;;;0.00;0.00;;;25.40;72.80;;;;;;3912274;30;20139;-68
2022/08/18 11:46:29;;;;;;;0.00;0.00;;;25.40;72.70;;;;;;3912453;30;20057;-69
2022/08/18 11:48:53;;;;;;;0.00;0.00;;;25.40;72.60;;;;;;3912132;30;20107;-69
2022/08/18 11:51:19;;;;;;;0.00;0.00;;;25.40;72.60;;;;;;3912021;30;20118;-69
2022/08/18 11:53:53;;;;;;;0.00;0.00;;;25.40;73.30;;;;;;3912378;30;20091;-69
2022/08/18 11:56:24;;;;;;;0.00;0.00;;;25.40;72.40;;;;;;3912184;30;20072;-69
2022/08/18 11:58:52;;;;;;;0.00;0.00;;;25.40;72.20;;;;;;3914266;30;20061;-69
2022/08/18 12:01:37;;;;;;;0.00;0.00;;;25.50;71.70;;;;;;3916814;30;20052;-69
2022/08/18 12:04:13;;;;;;;0.00;0.00;;;25.50;71.70;;;;;;3917247;30;20554;-70
2022/08/18 12:06:37;;;;;;;0.00;0.00;;;25.50;71.10;;;;;;3923671;30;20504;-69
2022/08/18 12:09:02;;;;;;;0.00;0.00;;;25.50;71.80;;;;;;3931430;30;20095;-69
2022/08/18 12:11:28;;;;;;;0.00;0.00;;;25.50;72.60;;;;;;3931809;30;20146;-69
2022/08/18 12:14:02;;;;;;;0.00;0.00;;;25.50;71.40;;;;;;3931532;30;20105;-68
2022/08/18 12:16:45;;;;;;;0.00;0.00;;;25.60;71.40;;;;;;3931534;30;20052;-67
2022/08/18 12:19:10;;;;;;;0.00;0.00;;;25.60;71.30;;;;;;3931224;30;20495;-69
2022/08/18 12:21:33;;;;;;;0.00;0.00;;;25.60;71.40;;;;;;3931583;30;20044;-66
2022/08/18 12:23:56;;;;;;;0.00;0.00;;;25.60;70.60;;;;;;3917722;30;20092;-66
2022/08/18 12:26:19;;;;;;;0.65;0.65;;;25.60;70.80;;;;;;3931330;30;20062;-66
2022/08/18 12:28:48;;;;;;;0.00;0.00;;;25.70;70.20;;;;;;3931188;30;20417;-66
2022/08/18 12:31:12;;;;;;;0.10;0.10;;;25.70;70.30;;;;;;3925017;30;20197;-68
2022/08/18 12:33:36;;;;;;;0.00;0.00;;;25.70;70.50;;;;;;3915756;30;20148;-64
2022/08/18 12:36:09;;;;;;;0.28;0.28;;;25.70;70.90;;;;;;3905755;30;20079;-64
2022/08/18 12:38:32;;;;;;;0.43;0.43;;;25.70;70.90;;;;;;3916517;30;20084;-65
2022/08/18 12:40:57;;;;;;;0.00;0.00;;;25.70;70.70;;;;;;3916815;30;20052;-67
2022/08/18 12:43:20;;;;;;;0.00;0.00;;;25.80;70.50;;;;;;3916486;30;20458;-69
2022/08/18 12:45:42;;;;;;;0.00;0.00;;;25.80;70.30;;;;;;3916292;30;20056;-70
2022/08/18 12:48:06;;;;;;;0.00;0.00;;;25.80;70.30;;;;;;3915329;30;20049;-69
2022/08/18 12:50:28;;;;;;;0.00;0.00;;;25.80;69.90;;;;;;3916252;30;20087;-70
2022/08/18 12:52:53;;;;;;;0.00;0.00;;;25.80;70.10;;;;;;3902882;30;20068;-69
2022/08/18 12:55:17;;;;;;;0.00;0.00;;;25.80;70.00;;;;;;3916681;30;20056;-69
2022/08/18 12:57:42;;;;;;;0.00;0.00;;;25.80;69.90;;;;;;3916586;30;20816;-69
2022/08/18 13:00:15;;;;;;;0.00;0.00;;;25.80;69.70;;;;;;3915516;30;20048;-70
2022/08/18 13:02:37;;;;;;;0.00;0.00;;;25.80;69.30;;;;;;3916341;30;20139;-70
2022/08/18 13:05:01;;;;;;;0.10;0.10;;;25.90;69.50;;;;;;3916785;30;20052;-70
2022/08/18 13:07:23;;;;;;;0.03;0.03;;;25.90;69.50;;;;;;3915868;30;20057;-70
2022/08/18 13:09:45;;;;;;;0.08;0.08;;;25.90;69.60;;;;;;3914338;30;20506;-69
2022/08/18 13:12:16;;;;;;;0.00;0.00;;;25.90;69.40;;;;;;3910977;30;20044;-69